This is the latest recevied weather packets stored in our database for station/object AG1T-20. If no packets are shown the sender has not sent any weather packets the latest 10 day(s).
| Time | Temp. | Humidity | Pressure | Rain* | Wind** | Luminosity | Snow |
|---|---|---|---|---|---|---|---|
| 1777809005 | 2.78° C | 77% | 1019.3 hPa | 0 mm | - | 0 W/m² | - |
| 1777808405 | 2.78° C | 78% | 1019.3 hPa | 0 mm | - | 0 W/m² | - |
| 1777807805 | 2.78° C | 74% | 1019.3 hPa | 0 mm | - | 0 W/m² | - |
| 1777807204 | 3.33° C | 74% | 1019.3 hPa | 0 mm | - | 0 W/m² | - |
| 1777806605 | 3.33° C | 74% | 1019.3 hPa | 0 mm | - | 0 W/m² | - |
| 1777806005 | 3.89° C | 72% | 1019.3 hPa | 0 mm | - | 0 W/m² | - |
| 1777805405 | 3.33° C | 75% | 1019.2 hPa | 0 mm | - | 0 W/m² | - |
| 1777804804 | 3.33° C | 73% | 1019.2 hPa | 0 mm | - | 0 W/m² | - |
| 1777804204 | 3.89° C | 73% | 1019.2 hPa | 0 mm | - | 0 W/m² | - |
| 1777803604 | 3.89° C | 71% | 1019.2 hPa | 0 mm | - | 0 W/m² | - |
| 1777803005 | 4.44° C | 70% | 1019.2 hPa | 0 mm | - | 0 W/m² | - |
| 1777802405 | 4.44° C | 72% | 1019.2 hPa | 0 mm | - | 0 W/m² | - |
| 1777801805 | 4.44° C | 70% | 1019.1 hPa | 0 mm | - | 0 W/m² | - |
| 1777801205 | 4.44° C | 72% | 1019.1 hPa | 0 mm | - | 0 W/m² | - |
| 1777800604 | 5° C | 69% | 1019.1 hPa | 0 mm | - | 0 W/m² | - |
| 1777800004 | 5.56° C | 64% | 1019.1 hPa | 0 mm | - | 0 W/m² | - |
| 1777799405 | 5° C | 66% | 1019.1 hPa | 0 mm | - | 0 W/m² | - |
| 1777798805 | 4.44° C | 70% | 1019.1 hPa | 0 mm | - | 0 W/m² | - |
| 1777798205 | 5° C | 70% | 1019.1 hPa | 0 mm | - | 0 W/m² | - |
| 1777797605 | 4.44° C | 71% | 1019.1 hPa | 0 mm | - | 0 W/m² | - |
| 1777797005 | 5° C | 70% | 1019.1 hPa | 0 mm | - | 0 W/m² | - |
| 1777796405 | 5° C | 68% | 1019.1 hPa | 0 mm | - | 0 W/m² | - |
| 1777795805 | 5° C | 70% | 1019.1 hPa | 0 mm | - | 0 W/m² | - |
| 1777795205 | 5.56° C | 69% | 1019.1 hPa | 0 mm | - | 0 W/m² | - |
| 1777794605 | 5.56° C | 69% | 1019.2 hPa | 0 mm | - | 0 W/m² | - |
* Rain latest hour (hover to see other rain measurements)
** Current wind speed in m/s (hover to see current wind gust speed)